sensor_id;sensor_type;location;lat;lon;timestamp;P1;durP1;ratioP1;P2;durP2;ratioP2
28822;SDS011;15961;54.678;9.110;2022-09-12T00:01:10;7.93;;;7.13;;
28822;SDS011;15961;54.678;9.110;2022-09-12T00:03:37;9.05;;;7.30;;
28822;SDS011;15961;54.678;9.110;2022-09-12T00:06:17;8.20;;;7.22;;
28822;SDS011;15961;54.678;9.110;2022-09-12T00:08:45;11.75;;;8.98;;
28822;SDS011;15961;54.678;9.110;2022-09-12T00:11:12;11.88;;;9.30;;
28822;SDS011;15961;54.678;9.110;2022-09-12T00:13:39;17.50;;;11.77;;
28822;SDS011;15961;54.678;9.110;2022-09-12T00:16:05;17.00;;;11.10;;
28822;SDS011;15961;54.678;9.110;2022-09-12T00:18:32;14.15;;;10.98;;
28822;SDS011;15961;54.678;9.110;2022-09-12T00:21:00;15.18;;;11.75;;
28822;SDS011;15961;54.678;9.110;2022-09-12T00:23:28;14.95;;;10.88;;
28822;SDS011;15961;54.678;9.110;2022-09-12T00:25:55;14.93;;;11.35;;
28822;SDS011;15961;54.678;9.110;2022-09-12T00:28:20;16.25;;;12.13;;
28822;SDS011;15961;54.678;9.110;2022-09-12T00:30:48;20.63;;;12.60;;
28822;SDS011;15961;54.678;9.110;2022-09-12T00:33:15;16.35;;;12.48;;
28822;SDS011;15961;54.678;9.110;2022-09-12T00:35:48;14.45;;;11.82;;
28822;SDS011;15961;54.678;9.110;2022-09-12T00:38:17;14.00;;;11.38;;
28822;SDS011;15961;54.678;9.110;2022-09-12T00:40:43;12.65;;;10.77;;
28822;SDS011;15961;54.678;9.110;2022-09-12T00:45:53;16.63;;;11.45;;
28822;SDS011;15961;54.678;9.110;2022-09-12T00:48:30;16.38;;;11.63;;
28822;SDS011;15961;54.678;9.110;2022-09-12T00:50:59;12.93;;;11.10;;
28822;SDS011;15961;54.678;9.110;2022-09-12T00:53:25;14.32;;;10.57;;
28822;SDS011;15961;54.678;9.110;2022-09-12T00:55:51;11.80;;;10.52;;
28822;SDS011;15961;54.678;9.110;2022-09-12T00:58:26;13.13;;;10.55;;
28822;SDS011;15961;54.678;9.110;2022-09-12T01:00:56;12.02;;;10.05;;
28822;SDS011;15961;54.678;9.110;2022-09-12T01:03:24;10.18;;;9.00;;
28822;SDS011;15961;54.678;9.110;2022-09-12T01:08:24;10.27;;;7.75;;
28822;SDS011;15961;54.678;9.110;2022-09-12T01:10:51;8.70;;;7.80;;
28822;SDS011;15961;54.678;9.110;2022-09-12T01:13:16;8.65;;;7.78;;
28822;SDS011;15961;54.678;9.110;2022-09-12T01:15:42;10.85;;;9.75;;
28822;SDS011;15961;54.678;9.110;2022-09-12T01:18:14;9.05;;;8.15;;
28822;SDS011;15961;54.678;9.110;2022-09-12T01:31:51;9.65;;;8.30;;
28822;SDS011;15961;54.678;9.110;2022-09-12T01:37:30;10.77;;;9.07;;
28822;SDS011;15961;54.678;9.110;2022-09-12T01:40:11;15.10;;;9.82;;
28822;SDS011;15961;54.678;9.110;2022-09-12T01:45:20;14.45;;;10.07;;
28822;SDS011;15961;54.678;9.110;2022-09-12T01:47:55;14.73;;;9.68;;
28822;SDS011;15961;54.678;9.110;2022-09-12T01:50:24;17.50;;;11.52;;
28822;SDS011;15961;54.678;9.110;2022-09-12T01:55:27;15.73;;;9.40;;
28822;SDS011;15961;54.678;9.110;2022-09-12T01:58:08;18.75;;;10.55;;
28822;SDS011;15961;54.678;9.110;2022-09-12T02:00:53;21.83;;;10.25;;
28822;SDS011;15961;54.678;9.110;2022-09-12T02:03:28;14.30;;;9.32;;
28822;SDS011;15961;54.678;9.110;2022-09-12T02:06:02;13.25;;;10.60;;
28822;SDS011;15961;54.678;9.110;2022-09-12T02:08:32;12.77;;;9.98;;
28822;SDS011;15961;54.678;9.110;2022-09-12T02:11:04;20.38;;;10.90;;
28822;SDS011;15961;54.678;9.110;2022-09-12T02:16:09;20.13;;;9.75;;
28822;SDS011;15961;54.678;9.110;2022-09-12T02:18:42;16.67;;;10.25;;
28822;SDS011;15961;54.678;9.110;2022-09-12T02:21:10;12.82;;;9.73;;
28822;SDS011;15961;54.678;9.110;2022-09-12T02:23:38;11.07;;;9.88;;
28822;SDS011;15961;54.678;9.110;2022-09-12T02:26:09;10.57;;;9.27;;
28822;SDS011;15961;54.678;9.110;2022-09-12T02:28:43;10.48;;;9.05;;
28822;SDS011;15961;54.678;9.110;2022-09-12T02:39:16;17.90;;;11.35;;
28822;SDS011;15961;54.678;9.110;2022-09-12T02:41:46;20.67;;;11.15;;
28822;SDS011;15961;54.678;9.110;2022-09-12T02:44:14;11.85;;;10.02;;
28822;SDS011;15961;54.678;9.110;2022-09-12T02:46:40;16.08;;;11.02;;
28822;SDS011;15961;54.678;9.110;2022-09-12T02:49:08;15.43;;;11.60;;
28822;SDS011;15961;54.678;9.110;2022-09-12T02:51:34;16.33;;;11.18;;
28822;SDS011;15961;54.678;9.110;2022-09-12T02:54:00;18.17;;;12.07;;
28822;SDS011;15961;54.678;9.110;2022-09-12T02:56:27;12.18;;;10.50;;
28822;SDS011;15961;54.678;9.110;2022-09-12T02:58:55;14.05;;;11.35;;
28822;SDS011;15961;54.678;9.110;2022-09-12T03:01:35;16.27;;;12.07;;
28822;SDS011;15961;54.678;9.110;2022-09-12T03:07:07;11.88;;;10.20;;
28822;SDS011;15961;54.678;9.110;2022-09-12T03:09:46;16.73;;;9.95;;
28822;SDS011;15961;54.678;9.110;2022-09-12T03:12:19;13.95;;;10.93;;
28822;SDS011;15961;54.678;9.110;2022-09-12T03:15:07;15.77;;;11.93;;
28822;SDS011;15961;54.678;9.110;2022-09-12T03:23:25;16.95;;;12.15;;
28822;SDS011;15961;54.678;9.110;2022-09-12T03:26:01;18.90;;;11.60;;
28822;SDS011;15961;54.678;9.110;2022-09-12T03:28:33;17.45;;;12.05;;
28822;SDS011;15961;54.678;9.110;2022-09-12T03:31:00;20.33;;;12.32;;
28822;SDS011;15961;54.678;9.110;2022-09-12T03:33:39;24.30;;;12.25;;
28822;SDS011;15961;54.678;9.110;2022-09-12T03:36:05;19.13;;;11.20;;
28822;SDS011;15961;54.678;9.110;2022-09-12T03:38:38;19.15;;;10.73;;
28822;SDS011;15961;54.678;9.110;2022-09-12T03:41:04;12.80;;;10.27;;
28822;SDS011;15961;54.678;9.110;2022-09-12T03:43:29;10.85;;;9.63;;
28822;SDS011;15961;54.678;9.110;2022-09-12T03:45:55;14.25;;;10.10;;
28822;SDS011;15961;54.678;9.110;2022-09-12T03:48:20;11.00;;;9.90;;
28822;SDS011;15961;54.678;9.110;2022-09-12T03:50:46;11.32;;;10.05;;
28822;SDS011;15961;54.678;9.110;2022-09-12T03:53:11;12.77;;;11.40;;
28822;SDS011;15961;54.678;9.110;2022-09-12T03:55:40;12.30;;;9.77;;
28822;SDS011;15961;54.678;9.110;2022-09-12T03:58:05;13.38;;;11.18;;
28822;SDS011;15961;54.678;9.110;2022-09-12T04:00:31;15.50;;;11.23;;
28822;SDS011;15961;54.678;9.110;2022-09-12T04:02:57;17.90;;;10.98;;
28822;SDS011;15961;54.678;9.110;2022-09-12T04:05:23;18.05;;;12.07;;
28822;SDS011;15961;54.678;9.110;2022-09-12T04:07:49;16.20;;;11.95;;
28822;SDS011;15961;54.678;9.110;2022-09-12T04:10:15;14.55;;;11.60;;
28822;SDS011;15961;54.678;9.110;2022-09-12T04:12:41;22.88;;;12.98;;
28822;SDS011;15961;54.678;9.110;2022-09-12T04:15:07;16.45;;;12.60;;
28822;SDS011;15961;54.678;9.110;2022-09-12T04:17:33;16.90;;;11.35;;
28822;SDS011;15961;54.678;9.110;2022-09-12T04:19:59;17.33;;;13.38;;
28822;SDS011;15961;54.678;9.110;2022-09-12T04:22:25;18.15;;;12.63;;
28822;SDS011;15961;54.678;9.110;2022-09-12T04:24:50;17.25;;;13.07;;
28822;SDS011;15961;54.678;9.110;2022-09-12T04:27:16;19.08;;;12.48;;
28822;SDS011;15961;54.678;9.110;2022-09-12T04:29:42;28.20;;;14.15;;
28822;SDS011;15961;54.678;9.110;2022-09-12T04:32:07;20.45;;;14.90;;
28822;SDS011;15961;54.678;9.110;2022-09-12T04:34:33;17.35;;;13.93;;
28822;SDS011;15961;54.678;9.110;2022-09-12T04:36:59;24.88;;;14.73;;
28822;SDS011;15961;54.678;9.110;2022-09-12T04:39:24;18.25;;;14.93;;
28822;SDS011;15961;54.678;9.110;2022-09-12T04:41:50;18.23;;;15.23;;
28822;SDS011;15961;54.678;9.110;2022-09-12T04:44:15;19.17;;;15.50;;
28822;SDS011;15961;54.678;9.110;2022-09-12T04:46:42;18.67;;;15.55;;
28822;SDS011;15961;54.678;9.110;2022-09-12T04:49:09;22.48;;;16.17;;
28822;SDS011;15961;54.678;9.110;2022-09-12T04:51:37;17.92;;;14.65;;
28822;SDS011;15961;54.678;9.110;2022-09-12T04:54:04;18.52;;;15.13;;
28822;SDS011;15961;54.678;9.110;2022-09-12T04:56:32;21.33;;;16.17;;
28822;SDS011;15961;54.678;9.110;2022-09-12T04:59:04;18.10;;;14.75;;
28822;SDS011;15961;54.678;9.110;2022-09-12T05:01:30;21.27;;;15.50;;
28822;SDS011;15961;54.678;9.110;2022-09-12T05:03:57;18.65;;;14.80;;
28822;SDS011;15961;54.678;9.110;2022-09-12T05:06:25;21.17;;;15.30;;
28822;SDS011;15961;54.678;9.110;2022-09-12T05:08:52;22.23;;;16.25;;
28822;SDS011;15961;54.678;9.110;2022-09-12T05:11:19;19.08;;;15.73;;
28822;SDS011;15961;54.678;9.110;2022-09-12T05:13:46;20.98;;;16.27;;
28822;SDS011;15961;54.678;9.110;2022-09-12T05:16:13;21.30;;;15.90;;
28822;SDS011;15961;54.678;9.110;2022-09-12T05:18:39;24.45;;;17.88;;
28822;SDS011;15961;54.678;9.110;2022-09-12T05:21:06;21.77;;;15.98;;
28822;SDS011;15961;54.678;9.110;2022-09-12T05:23:35;25.73;;;17.30;;
28822;SDS011;15961;54.678;9.110;2022-09-12T05:26:01;26.33;;;17.75;;
28822;SDS011;15961;54.678;9.110;2022-09-12T05:28:28;24.35;;;17.77;;
28822;SDS011;15961;54.678;9.110;2022-09-12T05:31:01;22.15;;;16.75;;
28822;SDS011;15961;54.678;9.110;2022-09-12T05:33:29;29.08;;;18.77;;
28822;SDS011;15961;54.678;9.110;2022-09-12T05:35:55;25.60;;;19.92;;
28822;SDS011;15961;54.678;9.110;2022-09-12T05:38:21;28.05;;;19.95;;
28822;SDS011;15961;54.678;9.110;2022-09-12T05:40:48;26.50;;;19.83;;
28822;SDS011;15961;54.678;9.110;2022-09-12T05:43:15;29.50;;;19.08;;
28822;SDS011;15961;54.678;9.110;2022-09-12T05:45:41;28.25;;;18.63;;
28822;SDS011;15961;54.678;9.110;2022-09-12T05:48:06;25.75;;;18.55;;
28822;SDS011;15961;54.678;9.110;2022-09-12T05:50:32;28.00;;;18.17;;
28822;SDS011;15961;54.678;9.110;2022-09-12T05:52:58;25.77;;;18.25;;
28822;SDS011;15961;54.678;9.110;2022-09-12T05:55:23;23.88;;;18.13;;
28822;SDS011;15961;54.678;9.110;2022-09-12T05:57:49;24.35;;;18.50;;
28822;SDS011;15961;54.678;9.110;2022-09-12T06:00:15;24.35;;;17.05;;
28822;SDS011;15961;54.678;9.110;2022-09-12T06:02:41;21.20;;;16.00;;
28822;SDS011;15961;54.678;9.110;2022-09-12T06:05:07;23.20;;;17.38;;
28822;SDS011;15961;54.678;9.110;2022-09-12T06:07:33;22.83;;;16.55;;
28822;SDS011;15961;54.678;9.110;2022-09-12T06:09:59;27.70;;;18.98;;
28822;SDS011;15961;54.678;9.110;2022-09-12T06:12:26;22.73;;;17.25;;
28822;SDS011;15961;54.678;9.110;2022-09-12T06:14:53;21.98;;;17.08;;
28822;SDS011;15961;54.678;9.110;2022-09-12T06:17:19;23.85;;;17.58;;
28822;SDS011;15961;54.678;9.110;2022-09-12T06:19:46;22.73;;;16.90;;
28822;SDS011;15961;54.678;9.110;2022-09-12T06:22:12;27.70;;;18.90;;
28822;SDS011;15961;54.678;9.110;2022-09-12T06:24:38;22.90;;;17.08;;
28822;SDS011;15961;54.678;9.110;2022-09-12T06:27:03;29.27;;;18.67;;
28822;SDS011;15961;54.678;9.110;2022-09-12T06:29:29;24.63;;;19.02;;
28822;SDS011;15961;54.678;9.110;2022-09-12T06:31:56;26.95;;;18.70;;
28822;SDS011;15961;54.678;9.110;2022-09-12T06:34:22;29.13;;;20.05;;
28822;SDS011;15961;54.678;9.110;2022-09-12T06:36:48;20.90;;;16.17;;
28822;SDS011;15961;54.678;9.110;2022-09-12T06:39:15;22.75;;;17.88;;
28822;SDS011;15961;54.678;9.110;2022-09-12T06:41:43;24.60;;;18.08;;
28822;SDS011;15961;54.678;9.110;2022-09-12T06:44:13;22.48;;;18.73;;
28822;SDS011;15961;54.678;9.110;2022-09-12T06:46:40;28.67;;;18.08;;
28822;SDS011;15961;54.678;9.110;2022-09-12T06:49:06;21.52;;;17.45;;
28822;SDS011;15961;54.678;9.110;2022-09-12T06:51:32;22.10;;;17.73;;
28822;SDS011;15961;54.678;9.110;2022-09-12T06:54:00;27.58;;;18.40;;
28822;SDS011;15961;54.678;9.110;2022-09-12T06:56:26;21.65;;;17.40;;
28822;SDS011;15961;54.678;9.110;2022-09-12T06:58:54;19.50;;;15.35;;
28822;SDS011;15961;54.678;9.110;2022-09-12T07:01:24;19.55;;;16.42;;
28822;SDS011;15961;54.678;9.110;2022-09-12T07:03:53;21.38;;;16.55;;
28822;SDS011;15961;54.678;9.110;2022-09-12T07:06:20;17.95;;;14.10;;
28822;SDS011;15961;54.678;9.110;2022-09-12T07:08:48;20.33;;;16.67;;
28822;SDS011;15961;54.678;9.110;2022-09-12T07:11:17;22.30;;;18.25;;
28822;SDS011;15961;54.678;9.110;2022-09-12T07:13:46;23.67;;;18.63;;
28822;SDS011;15961;54.678;9.110;2022-09-12T07:16:13;22.80;;;15.23;;
28822;SDS011;15961;54.678;9.110;2022-09-12T07:18:39;22.60;;;18.42;;
28822;SDS011;15961;54.678;9.110;2022-09-12T07:21:06;21.88;;;16.08;;
28822;SDS011;15961;54.678;9.110;2022-09-12T07:23:34;19.73;;;16.27;;
28822;SDS011;15961;54.678;9.110;2022-09-12T07:26:00;22.05;;;17.00;;
28822;SDS011;15961;54.678;9.110;2022-09-12T07:28:27;19.90;;;16.98;;
28822;SDS011;15961;54.678;9.110;2022-09-12T07:30:55;19.58;;;16.70;;
28822;SDS011;15961;54.678;9.110;2022-09-12T07:33:25;25.10;;;17.05;;
28822;SDS011;15961;54.678;9.110;2022-09-12T07:35:52;20.00;;;17.90;;
28822;SDS011;15961;54.678;9.110;2022-09-12T07:38:19;20.75;;;15.70;;
28822;SDS011;15961;54.678;9.110;2022-09-12T07:40:45;23.33;;;16.85;;
28822;SDS011;15961;54.678;9.110;2022-09-12T07:43:10;20.65;;;16.67;;
28822;SDS011;15961;54.678;9.110;2022-09-12T07:45:36;17.75;;;15.80;;
28822;SDS011;15961;54.678;9.110;2022-09-12T07:48:05;16.58;;;14.73;;
28822;SDS011;15961;54.678;9.110;2022-09-12T07:50:31;15.52;;;13.57;;
28822;SDS011;15961;54.678;9.110;2022-09-12T07:52:57;18.60;;;15.75;;
28822;SDS011;15961;54.678;9.110;2022-09-12T07:55:23;25.02;;;18.65;;
28822;SDS011;15961;54.678;9.110;2022-09-12T07:57:49;22.00;;;16.77;;
28822;SDS011;15961;54.678;9.110;2022-09-12T08:00:18;18.70;;;16.70;;
28822;SDS011;15961;54.678;9.110;2022-09-12T08:02:43;16.85;;;14.60;;
28822;SDS011;15961;54.678;9.110;2022-09-12T08:05:09;33.38;;;15.63;;
28822;SDS011;15961;54.678;9.110;2022-09-12T08:07:35;18.25;;;16.23;;
28822;SDS011;15961;54.678;9.110;2022-09-12T08:10:00;19.02;;;14.93;;
28822;SDS011;15961;54.678;9.110;2022-09-12T08:12:26;24.48;;;15.07;;
28822;SDS011;15961;54.678;9.110;2022-09-12T08:14:52;19.67;;;14.30;;
28822;SDS011;15961;54.678;9.110;2022-09-12T08:17:18;17.27;;;13.15;;
28822;SDS011;15961;54.678;9.110;2022-09-12T08:19:44;17.50;;;14.23;;
28822;SDS011;15961;54.678;9.110;2022-09-12T08:22:10;26.25;;;13.95;;
28822;SDS011;15961;54.678;9.110;2022-09-12T08:24:36;17.00;;;14.40;;
28822;SDS011;15961;54.678;9.110;2022-09-12T08:27:03;20.35;;;13.38;;
28822;SDS011;15961;54.678;9.110;2022-09-12T08:29:29;15.38;;;12.77;;
28822;SDS011;15961;54.678;9.110;2022-09-12T08:31:55;17.75;;;13.23;;
28822;SDS011;15961;54.678;9.110;2022-09-12T08:34:21;16.30;;;14.00;;
28822;SDS011;15961;54.678;9.110;2022-09-12T08:36:46;16.27;;;11.73;;
28822;SDS011;15961;54.678;9.110;2022-09-12T08:39:12;20.52;;;12.45;;
28822;SDS011;15961;54.678;9.110;2022-09-12T08:41:39;13.73;;;11.15;;
28822;SDS011;15961;54.678;9.110;2022-09-12T08:44:28;13.00;;;11.30;;
28822;SDS011;15961;54.678;9.110;2022-09-12T08:55:34;17.38;;;11.77;;
28822;SDS011;15961;54.678;9.110;2022-09-12T08:58:00;13.98;;;10.13;;
28822;SDS011;15961;54.678;9.110;2022-09-12T09:06:34;12.98;;;10.10;;
28822;SDS011;15961;54.678;9.110;2022-09-12T09:09:19;11.70;;;8.93;;
28822;SDS011;15961;54.678;9.110;2022-09-12T09:20:15;9.82;;;7.70;;
28822;SDS011;15961;54.678;9.110;2022-09-12T09:22:49;7.47;;;6.63;;
28822;SDS011;15961;54.678;9.110;2022-09-12T09:25:25;6.53;;;5.68;;
28822;SDS011;15961;54.678;9.110;2022-09-12T09:28:01;10.75;;;6.53;;
28822;SDS011;15961;54.678;9.110;2022-09-12T09:30:31;7.78;;;5.82;;
28822;SDS011;15961;54.678;9.110;2022-09-12T09:32:59;9.93;;;6.00;;
28822;SDS011;15961;54.678;9.110;2022-09-12T09:35:31;9.15;;;5.35;;
28822;SDS011;15961;54.678;9.110;2022-09-12T09:38:32;6.35;;;5.20;;
28822;SDS011;15961;54.678;9.110;2022-09-12T09:41:18;12.50;;;6.30;;
28822;SDS011;15961;54.678;9.110;2022-09-12T09:43:55;5.32;;;4.22;;
28822;SDS011;15961;54.678;9.110;2022-09-12T09:46:21;10.50;;;6.03;;
28822;SDS011;15961;54.678;9.110;2022-09-12T09:48:49;6.88;;;5.65;;
28822;SDS011;15961;54.678;9.110;2022-09-12T09:51:18;9.82;;;5.78;;
28822;SDS011;15961;54.678;9.110;2022-09-12T09:53:52;5.85;;;5.18;;
28822;SDS011;15961;54.678;9.110;2022-09-12T09:56:37;6.93;;;5.22;;
28822;SDS011;15961;54.678;9.110;2022-09-12T09:59:08;9.40;;;5.25;;
28822;SDS011;15961;54.678;9.110;2022-09-12T10:01:47;6.57;;;5.75;;
28822;SDS011;15961;54.678;9.110;2022-09-12T10:04:20;7.22;;;6.53;;
28822;SDS011;15961;54.678;9.110;2022-09-12T10:06:49;7.47;;;6.57;;
28822;SDS011;15961;54.678;9.110;2022-09-12T10:09:22;7.78;;;6.03;;
28822;SDS011;15961;54.678;9.110;2022-09-12T10:11:58;6.97;;;6.07;;
28822;SDS011;15961;54.678;9.110;2022-09-12T10:14:33;8.15;;;6.28;;
28822;SDS011;15961;54.678;9.110;2022-09-12T10:17:24;11.00;;;5.78;;
28822;SDS011;15961;54.678;9.110;2022-09-12T10:19:52;6.63;;;5.22;;
28822;SDS011;15961;54.678;9.110;2022-09-12T10:22:19;9.45;;;5.50;;
28822;SDS011;15961;54.678;9.110;2022-09-12T10:24:49;6.88;;;5.38;;
28822;SDS011;15961;54.678;9.110;2022-09-12T10:27:18;6.05;;;4.95;;
28822;SDS011;15961;54.678;9.110;2022-09-12T10:29:45;11.93;;;4.57;;
28822;SDS011;15961;54.678;9.110;2022-09-12T10:32:26;5.50;;;4.40;;
28822;SDS011;15961;54.678;9.110;2022-09-12T10:35:01;8.07;;;4.57;;
28822;SDS011;15961;54.678;9.110;2022-09-12T10:37:53;9.95;;;4.22;;
28822;SDS011;15961;54.678;9.110;2022-09-12T10:40:26;4.90;;;4.15;;
28822;SDS011;15961;54.678;9.110;2022-09-12T10:42:57;5.53;;;4.57;;
28822;SDS011;15961;54.678;9.110;2022-09-12T10:47:54;5.25;;;4.28;;
28822;SDS011;15961;54.678;9.110;2022-09-12T10:50:24;6.07;;;4.07;;
28822;SDS011;15961;54.678;9.110;2022-09-12T11:10:08;7.43;;;3.97;;
28822;SDS011;15961;54.678;9.110;2022-09-12T11:27:06;6.88;;;3.72;;
28822;SDS011;15961;54.678;9.110;2022-09-12T11:35:18;6.68;;;3.10;;
28822;SDS011;15961;54.678;9.110;2022-09-12T11:40:28;10.48;;;3.95;;
28822;SDS011;15961;54.678;9.110;2022-09-12T11:46:33;5.13;;;4.15;;
28822;SDS011;15961;54.678;9.110;2022-09-12T11:51:39;8.43;;;3.55;;
28822;SDS011;15961;54.678;9.110;2022-09-12T11:54:26;10.70;;;4.57;;
28822;SDS011;15961;54.678;9.110;2022-09-12T11:59:53;6.65;;;3.97;;
28822;SDS011;15961;54.678;9.110;2022-09-12T12:02:32;9.07;;;4.60;;
28822;SDS011;15961;54.678;9.110;2022-09-12T12:07:56;9.27;;;5.07;;
28822;SDS011;15961;54.678;9.110;2022-09-12T12:10:34;9.30;;;5.18;;
28822;SDS011;15961;54.678;9.110;2022-09-12T12:13:16;12.77;;;5.65;;
28822;SDS011;15961;54.678;9.110;2022-09-12T12:15:44;8.90;;;5.60;;
28822;SDS011;15961;54.678;9.110;2022-09-12T12:18:18;11.65;;;7.38;;
28822;SDS011;15961;54.678;9.110;2022-09-12T12:23:33;13.75;;;7.13;;
28822;SDS011;15961;54.678;9.110;2022-09-12T12:26:02;14.15;;;7.57;;
28822;SDS011;15961;54.678;9.110;2022-09-12T12:29:14;8.25;;;7.00;;
28822;SDS011;15961;54.678;9.110;2022-09-12T12:31:15;13.50;;;7.63;;
28822;SDS011;15961;54.678;9.110;2022-09-12T12:36:30;13.45;;;8.60;;
28822;SDS011;15961;54.678;9.110;2022-09-12T12:41:57;12.30;;;8.05;;
28822;SDS011;15961;54.678;9.110;2022-09-12T12:50:00;13.70;;;9.93;;
28822;SDS011;15961;54.678;9.110;2022-09-12T12:52:29;18.27;;;11.00;;
28822;SDS011;15961;54.678;9.110;2022-09-12T12:54:57;12.32;;;9.45;;
28822;SDS011;15961;54.678;9.110;2022-09-12T12:57:26;15.75;;;9.65;;
28822;SDS011;15961;54.678;9.110;2022-09-12T13:00:03;12.70;;;9.93;;
28822;SDS011;15961;54.678;9.110;2022-09-12T13:02:37;14.50;;;9.52;;
28822;SDS011;15961;54.678;9.110;2022-09-12T13:05:06;12.27;;;8.75;;
28822;SDS011;15961;54.678;9.110;2022-09-12T13:07:42;16.20;;;9.60;;
28822;SDS011;15961;54.678;9.110;2022-09-12T13:10:18;16.30;;;9.93;;
28822;SDS011;15961;54.678;9.110;2022-09-12T13:12:47;17.08;;;10.90;;
28822;SDS011;15961;54.678;9.110;2022-09-12T13:17:58;14.55;;;9.82;;
28822;SDS011;15961;54.678;9.110;2022-09-12T13:20:46;12.77;;;8.52;;
28822;SDS011;15961;54.678;9.110;2022-09-12T13:23:29;14.85;;;9.32;;
28822;SDS011;15961;54.678;9.110;2022-09-12T13:25:56;12.68;;;8.25;;
28822;SDS011;15961;54.678;9.110;2022-09-12T13:28:24;16.23;;;9.95;;
28822;SDS011;15961;54.678;9.110;2022-09-12T13:33:47;12.35;;;9.05;;
28822;SDS011;15961;54.678;9.110;2022-09-12T13:39:11;11.20;;;8.57;;
28822;SDS011;15961;54.678;9.110;2022-09-12T13:44:23;10.85;;;8.18;;
28822;SDS011;15961;54.678;9.110;2022-09-12T13:46:50;12.82;;;7.75;;
28822;SDS011;15961;54.678;9.110;2022-09-12T13:49:21;12.95;;;7.20;;
28822;SDS011;15961;54.678;9.110;2022-09-12T13:52:02;16.60;;;8.73;;
28822;SDS011;15961;54.678;9.110;2022-09-12T13:54:29;12.63;;;9.85;;
28822;SDS011;15961;54.678;9.110;2022-09-12T13:56:56;17.42;;;7.57;;
28822;SDS011;15961;54.678;9.110;2022-09-12T13:59:23;14.93;;;9.07;;
28822;SDS011;15961;54.678;9.110;2022-09-12T14:01:49;12.52;;;8.48;;
28822;SDS011;15961;54.678;9.110;2022-09-12T14:09:45;15.73;;;7.05;;
28822;SDS011;15961;54.678;9.110;2022-09-12T14:14:49;15.32;;;8.38;;
28822;SDS011;15961;54.678;9.110;2022-09-12T14:19:43;10.35;;;6.88;;
28822;SDS011;15961;54.678;9.110;2022-09-12T14:22:11;10.73;;;6.82;;
28822;SDS011;15961;54.678;9.110;2022-09-12T14:24:43;11.70;;;7.97;;
28822;SDS011;15961;54.678;9.110;2022-09-12T14:27:14;10.13;;;7.53;;
28822;SDS011;15961;54.678;9.110;2022-09-12T14:29:51;9.82;;;7.20;;
28822;SDS011;15961;54.678;9.110;2022-09-12T14:32:23;9.13;;;5.35;;
28822;SDS011;15961;54.678;9.110;2022-09-12T14:37:42;9.30;;;5.37;;
28822;SDS011;15961;54.678;9.110;2022-09-12T14:40:15;8.70;;;5.15;;
28822;SDS011;15961;54.678;9.110;2022-09-12T14:42:46;7.97;;;5.13;;
28822;SDS011;15961;54.678;9.110;2022-09-12T14:45:26;11.05;;;6.20;;
28822;SDS011;15961;54.678;9.110;2022-09-12T14:47:55;10.02;;;6.13;;
28822;SDS011;15961;54.678;9.110;2022-09-12T14:50:23;8.80;;;6.00;;
28822;SDS011;15961;54.678;9.110;2022-09-12T14:55:51;8.88;;;4.55;;
28822;SDS011;15961;54.678;9.110;2022-09-12T15:03:30;7.72;;;4.65;;
28822;SDS011;15961;54.678;9.110;2022-09-12T15:06:04;9.55;;;5.13;;
28822;SDS011;15961;54.678;9.110;2022-09-12T15:08:33;14.43;;;5.63;;
28822;SDS011;15961;54.678;9.110;2022-09-12T15:10:59;8.88;;;6.00;;
28822;SDS011;15961;54.678;9.110;2022-09-12T15:13:25;11.45;;;5.55;;
28822;SDS011;15961;54.678;9.110;2022-09-12T15:15:56;7.88;;;4.35;;
28822;SDS011;15961;54.678;9.110;2022-09-12T15:18:24;13.98;;;5.65;;
28822;SDS011;15961;54.678;9.110;2022-09-12T15:20:53;8.40;;;6.25;;
28822;SDS011;15961;54.678;9.110;2022-09-12T15:23:41;14.18;;;7.10;;
28822;SDS011;15961;54.678;9.110;2022-09-12T15:26:10;11.07;;;7.25;;
28822;SDS011;15961;54.678;9.110;2022-09-12T15:28:38;12.30;;;7.65;;
28822;SDS011;15961;54.678;9.110;2022-09-12T15:31:05;13.95;;;7.30;;
28822;SDS011;15961;54.678;9.110;2022-09-12T15:33:35;8.35;;;6.50;;
28822;SDS011;15961;54.678;9.110;2022-09-12T15:36:01;11.20;;;8.27;;
28822;SDS011;15961;54.678;9.110;2022-09-12T15:38:26;8.98;;;6.78;;
28822;SDS011;15961;54.678;9.110;2022-09-12T15:40:52;10.30;;;6.45;;
28822;SDS011;15961;54.678;9.110;2022-09-12T15:43:18;12.63;;;8.35;;
28822;SDS011;15961;54.678;9.110;2022-09-12T15:45:45;12.35;;;7.75;;
28822;SDS011;15961;54.678;9.110;2022-09-12T15:48:12;9.05;;;7.80;;
28822;SDS011;15961;54.678;9.110;2022-09-12T15:50:39;13.63;;;8.40;;
28822;SDS011;15961;54.678;9.110;2022-09-12T15:53:05;12.38;;;7.55;;
28822;SDS011;15961;54.678;9.110;2022-09-12T15:55:31;9.55;;;6.75;;
28822;SDS011;15961;54.678;9.110;2022-09-12T15:57:57;13.27;;;8.02;;
28822;SDS011;15961;54.678;9.110;2022-09-12T16:00:23;14.55;;;7.45;;
28822;SDS011;15961;54.678;9.110;2022-09-12T16:02:50;10.02;;;7.10;;
28822;SDS011;15961;54.678;9.110;2022-09-12T16:05:18;13.43;;;7.80;;
28822;SDS011;15961;54.678;9.110;2022-09-12T16:07:49;9.82;;;6.20;;
28822;SDS011;15961;54.678;9.110;2022-09-12T16:10:18;13.02;;;8.10;;
28822;SDS011;15961;54.678;9.110;2022-09-12T16:12:52;17.05;;;6.90;;
28822;SDS011;15961;54.678;9.110;2022-09-12T16:15:20;7.85;;;6.10;;
28822;SDS011;15961;54.678;9.110;2022-09-12T16:17:47;10.43;;;6.47;;
28822;SDS011;15961;54.678;9.110;2022-09-12T16:20:13;10.05;;;6.47;;
28822;SDS011;15961;54.678;9.110;2022-09-12T16:22:39;11.10;;;7.32;;
28822;SDS011;15961;54.678;9.110;2022-09-12T16:25:05;18.50;;;9.00;;
28822;SDS011;15961;54.678;9.110;2022-09-12T16:27:32;15.32;;;8.60;;
28822;SDS011;15961;54.678;9.110;2022-09-12T16:29:58;11.35;;;6.95;;
28822;SDS011;15961;54.678;9.110;2022-09-12T16:32:23;13.00;;;7.68;;
28822;SDS011;15961;54.678;9.110;2022-09-12T16:34:49;12.57;;;8.18;;
28822;SDS011;15961;54.678;9.110;2022-09-12T16:37:15;13.10;;;7.10;;
28822;SDS011;15961;54.678;9.110;2022-09-12T16:39:41;14.52;;;7.55;;
28822;SDS011;15961;54.678;9.110;2022-09-12T16:42:06;12.20;;;7.82;;
28822;SDS011;15961;54.678;9.110;2022-09-12T16:44:32;16.88;;;9.20;;
28822;SDS011;15961;54.678;9.110;2022-09-12T16:46:58;13.38;;;8.43;;
28822;SDS011;15961;54.678;9.110;2022-09-12T16:49:23;15.02;;;9.10;;
28822;SDS011;15961;54.678;9.110;2022-09-12T16:51:49;12.98;;;7.70;;
28822;SDS011;15961;54.678;9.110;2022-09-12T16:54:15;12.27;;;9.48;;
28822;SDS011;15961;54.678;9.110;2022-09-12T16:56:41;17.45;;;8.82;;
28822;SDS011;15961;54.678;9.110;2022-09-12T16:59:07;12.40;;;8.45;;
28822;SDS011;15961;54.678;9.110;2022-09-12T17:01:36;10.07;;;7.80;;
28822;SDS011;15961;54.678;9.110;2022-09-12T17:04:02;11.43;;;8.63;;
28822;SDS011;15961;54.678;9.110;2022-09-12T17:06:28;13.35;;;8.80;;
28822;SDS011;15961;54.678;9.110;2022-09-12T17:08:54;12.80;;;8.27;;
28822;SDS011;15961;54.678;9.110;2022-09-12T17:11:23;16.88;;;9.65;;
28822;SDS011;15961;54.678;9.110;2022-09-12T17:13:56;14.85;;;8.45;;
28822;SDS011;15961;54.678;9.110;2022-09-12T17:16:22;15.05;;;9.15;;
28822;SDS011;15961;54.678;9.110;2022-09-12T17:18:48;14.80;;;9.40;;
28822;SDS011;15961;54.678;9.110;2022-09-12T17:21:15;15.50;;;7.40;;
28822;SDS011;15961;54.678;9.110;2022-09-12T17:23:41;12.10;;;7.18;;
28822;SDS011;15961;54.678;9.110;2022-09-12T17:26:08;11.52;;;8.40;;
28822;SDS011;15961;54.678;9.110;2022-09-12T17:28:35;13.73;;;7.22;;
28822;SDS011;15961;54.678;9.110;2022-09-12T17:31:01;8.98;;;6.80;;